Pagrindinis puslapis
METAR-TAF:

METAR-TAF

Oro uostai :

Tawau, Malaizija

platuma: 04-16N, ilguma: 117-53E, Aukštis: 18 m

Dabartinis oras

Ataskaita buvo paskelbta 24 minutes, ne 00:00 UTC
Vėjas 2 kt nuo kintamojo kryptimis
Temperatūra 27°C
Drėgmė 84%
Slėgis 1008 hPa
Matomumas 10 km arba daugiau
Mažai debesys ne aukštis 1600 ft, aukštai iškilę kamuoliniai debesys.

METAR: WBKW 260000Z VRB02KT 9999 FEW016TCU 27/24 Q1008

Laikas: 08:24 (00:24 UTC)

Prognozė

Ataskaita buvo paskelbta 1 valandą ir 24 minutes, ne 23:00 UTC
Prognozė galioja nuo 26 metu 00 UTC su 27 metu 00 UTC
Vėjas 3 kt nuo kintamojo kryptimis
Matomumas 10 km arba daugiau
Mažai debesys ne aukštis 1700 ft
Laikinai
nuo 26 metu 06 UTC su 26 metu 10 UTC
Vėjas 10 kt iš Pietų/Pietryčių
Matomumas: 5000 m
Mažai debesys ne aukštis 1000 ft
Mažai debesys ne aukštis 1600 ft, Liūtiniai kamuoliniai debesys.
Išsisklaidę debesys ne aukštis 3000 ft
perkūnija, lietus

TAF: WBKW 252300Z 2600/2700 VRB03KT 9999 FEW017 TEMPO 2606/2610 15010KT 5000 TSRA FEW010 FEW016CB SCT030

Orai ataskaitas ir orų prognozės (METAR, TAF).

turimą stotys yra geltonos ir raudonos taškus žemėlapyje.

Perkelti pele per norėdami pamatyti stoties vardą.

Tada spustelėkite, norėdami matyti oro stebėjimo ir prognozės.

Norėdami pakeisti žemėlapį: spustelėkite ant žalios mygtukų su juodo kryžiaus žemyn,; žalią mygtuką su brūkšneliu, jei norite nutolinti; arba žalių rodyklių gretimoms žemėlapius.


METAR-TAF: